createdAt,value
2022-11-17T00:00:43.614Z,93.42
2022-11-17T00:03:16.460Z,93.18
2022-11-17T00:05:45.011Z,93.75
2022-11-17T00:08:12.674Z,93.58
2022-11-17T00:10:40.344Z,93.77
2022-11-17T00:13:26.732Z,94.11
2022-11-17T00:15:54.302Z,94.15
2022-11-17T00:18:40.784Z,94.33
2022-11-17T00:21:22.501Z,94.29
2022-11-17T00:23:51.207Z,94.70
2022-11-17T00:26:23.970Z,95.41
2022-11-17T00:29:00.015Z,97.03
2022-11-17T00:31:48.402Z,96.21
2022-11-17T00:34:21.628Z,96.40
2022-11-17T00:36:53.084Z,96.59
2022-11-17T00:39:22.851Z,96.63
2022-11-17T00:41:50.778Z,96.61
2022-11-17T00:44:18.700Z,96.74
2022-11-17T00:46:46.573Z,96.68
2022-11-17T00:49:15.645Z,96.43
2022-11-17T00:51:43.875Z,96.90
2022-11-17T00:54:13.709Z,96.54
2022-11-17T00:56:41.800Z,96.74
2022-11-17T00:59:09.504Z,96.33
2022-11-17T01:01:37.884Z,96.46
2022-11-17T01:04:06.249Z,96.73
2022-11-17T01:06:41.452Z,96.58
2022-11-17T01:09:13.705Z,96.58
2022-11-17T01:11:42.492Z,96.71
2022-11-17T01:14:14.528Z,96.61
2022-11-17T01:16:42.796Z,96.29
2022-11-17T01:19:13.066Z,96.28
2022-11-17T01:21:40.847Z,96.34
2022-11-17T01:24:09.248Z,96.40
2022-11-17T01:26:38.328Z,96.56
2022-11-17T01:29:06.819Z,96.45
2022-11-17T01:31:37.351Z,96.48
2022-11-17T01:34:05.806Z,96.36
2022-11-17T01:36:55.955Z,96.49
2022-11-17T01:39:28.564Z,96.44
2022-11-17T01:41:57.195Z,96.48
2022-11-17T01:44:42.775Z,96.34
2022-11-17T01:47:30.433Z,96.25
2022-11-17T01:50:11.161Z,95.86
2022-11-17T01:52:41.393Z,95.70
2022-11-17T01:55:12.171Z,95.56
2022-11-17T01:58:00.997Z,95.24
2022-11-17T02:00:29.905Z,94.68
2022-11-17T02:02:57.997Z,94.90
2022-11-17T02:05:57.781Z,94.85
2022-11-17T02:08:29.449Z,95.04
2022-11-17T02:10:57.783Z,94.72
2022-11-17T02:13:25.809Z,94.54
2022-11-17T02:15:53.490Z,94.48
2022-11-17T02:18:22.044Z,94.63
2022-11-17T02:21:05.150Z,94.75
2022-11-17T02:24:03.909Z,94.82
2022-11-17T02:26:59.318Z,94.83
2022-11-17T02:29:29.659Z,94.68
2022-11-17T02:31:57.229Z,94.71
2022-11-17T02:34:39.965Z,94.76
2022-11-17T02:37:34.500Z,95.01
2022-11-17T02:40:14.891Z,94.78
2022-11-17T02:43:08.363Z,95.00
2022-11-17T02:45:46.023Z,95.08
2022-11-17T02:48:20.316Z,94.72
2022-11-17T02:50:49.820Z,94.52
2022-11-17T02:53:18.945Z,94.51
2022-11-17T02:55:54.656Z,94.58
2022-11-17T02:58:22.718Z,94.43
2022-11-17T03:01:15.794Z,94.27
2022-11-17T03:03:43.379Z,94.30
2022-11-17T03:06:39.191Z,93.95
2022-11-17T03:09:21.750Z,93.55
2022-11-17T03:11:54.748Z,93.93
2022-11-17T03:14:31.037Z,94.12
2022-11-17T03:17:08.321Z,94.38
2022-11-17T03:19:53.708Z,94.47
2022-11-17T03:22:53.797Z,94.76
2022-11-17T03:25:25.700Z,94.62
2022-11-17T03:27:57.452Z,96.19
2022-11-17T03:30:26.732Z,96.70
2022-11-17T03:33:06.308Z,96.75
2022-11-17T03:35:39.769Z,97.23
2022-11-17T03:38:13.842Z,96.96
2022-11-17T03:40:47.561Z,96.80
2022-11-17T03:43:19.782Z,96.56
2022-11-17T03:45:53.558Z,96.62
2022-11-17T03:48:32.439Z,96.62
2022-11-17T03:51:10.324Z,97.08
2022-11-17T03:53:38.587Z,97.38
2022-11-17T03:56:12.333Z,97.06
2022-11-17T03:58:50.918Z,97.91
2022-11-17T04:01:21.933Z,98.35
2022-11-17T04:03:50.015Z,98.14
2022-11-17T04:06:17.663Z,98.90
2022-11-17T04:08:45.535Z,99.43
2022-11-17T04:11:31.987Z,99.69
2022-11-17T04:14:18.148Z,100.00
2022-11-17T04:16:45.791Z,99.89
2022-11-17T04:19:13.503Z,100.00
2022-11-17T04:21:41.120Z,99.79
2022-11-17T04:24:09.190Z,100.00
2022-11-17T04:26:55.801Z,100.00
2022-11-17T04:29:23.410Z,100.00
2022-11-17T04:31:51.015Z,100.00
2022-11-17T04:34:18.610Z,99.95
2022-11-17T04:36:46.499Z,100.00
2022-11-17T04:39:15.775Z,100.00
2022-11-17T04:41:58.234Z,100.00
2022-11-17T04:44:28.236Z,100.00
2022-11-17T04:46:56.690Z,100.00
2022-11-17T04:49:25.898Z,100.00
2022-11-17T04:51:55.195Z,100.00
2022-11-17T04:54:27.756Z,100.00
2022-11-17T04:56:56.453Z,100.00
2022-11-17T04:59:24.862Z,100.00
2022-11-17T05:01:52.638Z,100.00
2022-11-17T05:04:41.876Z,100.00
2022-11-17T05:07:10.323Z,100.00
2022-11-17T05:09:38.142Z,100.00
2022-11-17T05:12:24.440Z,100.00
2022-11-17T05:14:53.434Z,100.00
2022-11-17T05:17:21.004Z,100.00
2022-11-17T05:19:49.701Z,100.00
2022-11-17T05:22:39.315Z,100.00
2022-11-17T05:25:07.381Z,100.00
2022-11-17T05:27:35.726Z,100.00
2022-11-17T05:30:06.729Z,100.00
2022-11-17T05:32:34.311Z,100.00
2022-11-17T05:35:01.983Z,100.00
2022-11-17T05:37:29.667Z,100.00
2022-11-17T05:39:57.436Z,100.00
2022-11-17T05:42:25.136Z,100.00
2022-11-17T05:44:52.787Z,100.00
2022-11-17T05:47:20.418Z,100.00
2022-11-17T05:49:48.005Z,100.00
2022-11-17T05:52:15.620Z,100.00
2022-11-17T05:54:43.253Z,100.00
2022-11-17T05:57:15.270Z,100.00
2022-11-17T05:59:58.222Z,100.00
2022-11-17T06:02:41.248Z,100.00
2022-11-17T06:05:14.424Z,100.00
2022-11-17T06:07:44.807Z,100.00
2022-11-17T06:10:12.476Z,100.00
2022-11-17T06:12:40.127Z,100.00
2022-11-17T06:15:08.162Z,100.00
2022-11-17T06:17:47.231Z,100.00
2022-11-17T06:20:21.037Z,100.00
2022-11-17T06:22:50.665Z,100.00
2022-11-17T06:25:20.632Z,100.00
2022-11-17T06:27:49.770Z,100.00
2022-11-17T06:30:17.977Z,100.00
2022-11-17T06:32:46.711Z,100.00
2022-11-17T06:35:15.581Z,100.00
2022-11-17T06:37:43.908Z,99.81
2022-11-17T06:40:12.758Z,100.00
2022-11-17T06:42:59.840Z,100.00
2022-11-17T06:45:27.574Z,99.77
2022-11-17T06:47:55.603Z,100.00
2022-11-17T06:50:23.367Z,100.00
2022-11-17T06:52:51.195Z,100.00
2022-11-17T06:55:19.703Z,100.00
2022-11-17T06:57:53.040Z,99.29
2022-11-17T07:00:21.678Z,100.00
2022-11-17T07:02:49.355Z,99.96
2022-11-17T07:05:17.108Z,99.70
2022-11-17T07:07:44.855Z,99.45
2022-11-17T07:10:13.001Z,99.39
2022-11-17T07:12:40.671Z,99.15
2022-11-17T07:15:08.797Z,98.88
2022-11-17T07:17:36.596Z,98.50
2022-11-17T07:20:05.279Z,98.62
2022-11-17T07:22:32.999Z,98.35
2022-11-17T07:25:00.671Z,98.35
2022-11-17T07:27:28.413Z,98.16
2022-11-17T07:29:56.076Z,98.03
2022-11-17T07:32:24.449Z,97.84
2022-11-17T07:34:52.590Z,97.50
2022-11-17T07:37:20.515Z,97.23
2022-11-17T07:39:48.232Z,96.86
2022-11-17T07:42:15.950Z,96.89
2022-11-17T07:44:43.656Z,96.33
2022-11-17T07:47:11.366Z,96.44
2022-11-17T07:49:39.103Z,96.43
2022-11-17T07:52:06.961Z,96.01
2022-11-17T07:54:34.875Z,96.01
2022-11-17T07:57:02.530Z,95.98
2022-11-17T07:59:30.224Z,95.90
2022-11-17T08:01:58.044Z,95.98
2022-11-17T08:04:25.786Z,95.80
2022-11-17T08:06:53.552Z,95.76
2022-11-17T08:09:21.345Z,95.63
2022-11-17T08:11:49.493Z,95.49
2022-11-17T08:14:17.275Z,95.43
2022-11-17T08:16:45.111Z,95.35
2022-11-17T08:19:13.419Z,95.38
2022-11-17T08:21:42.432Z,95.30
2022-11-17T08:24:10.331Z,95.05
2022-11-17T08:26:38.124Z,94.84
2022-11-17T08:29:05.967Z,94.99
2022-11-17T08:31:34.330Z,94.55
2022-11-17T08:34:02.123Z,94.02
2022-11-17T08:36:29.882Z,93.73
2022-11-17T08:38:57.675Z,93.10
2022-11-17T08:41:26.916Z,91.65
2022-11-17T08:43:54.743Z,92.35
2022-11-17T08:46:22.473Z,92.23
2022-11-17T08:48:55.483Z,91.65
2022-11-17T08:51:24.747Z,91.17
2022-11-17T08:53:52.580Z,91.70
2022-11-17T08:56:20.482Z,91.36
2022-11-17T08:58:48.662Z,91.08
2022-11-17T09:01:17.676Z,91.13
2022-11-17T09:03:47.606Z,90.27
2022-11-17T09:06:16.994Z,88.66
2022-11-17T09:08:46.597Z,89.26
2022-11-17T09:11:15.628Z,88.34
2022-11-17T09:13:43.438Z,88.74
2022-11-17T09:16:12.593Z,88.23
2022-11-17T09:18:41.771Z,87.37
2022-11-17T09:21:16.730Z,86.97
2022-11-17T09:23:44.672Z,86.50
2022-11-17T09:26:14.793Z,86.28
2022-11-17T09:28:43.443Z,83.24
2022-11-17T09:31:29.260Z,84.16
2022-11-17T09:34:00.781Z,82.36
2022-11-17T09:36:31.679Z,81.62
2022-11-17T09:39:00.789Z,82.29
2022-11-17T09:41:49.277Z,82.40
2022-11-17T09:44:40.912Z,81.83
2022-11-17T09:47:08.558Z,79.74
2022-11-17T09:49:41.994Z,81.60
2022-11-17T09:52:29.867Z,81.93
2022-11-17T09:55:04.842Z,81.25
2022-11-17T09:58:08.379Z,79.54
2022-11-17T10:00:39.811Z,80.92
2022-11-17T10:03:22.752Z,80.93
2022-11-17T10:05:51.554Z,79.49
2022-11-17T10:08:41.539Z,80.28
2022-11-17T10:11:34.022Z,77.75
2022-11-17T10:14:16.764Z,76.66
2022-11-17T10:16:56.524Z,75.57
2022-11-17T10:19:25.614Z,75.48
2022-11-17T10:21:58.870Z,74.84
2022-11-17T10:24:43.510Z,74.44
2022-11-17T10:27:20.360Z,73.69
2022-11-17T10:30:01.150Z,74.27
2022-11-17T10:32:33.311Z,72.80
2022-11-17T10:35:18.074Z,73.38
2022-11-17T10:38:09.927Z,73.37
2022-11-17T10:40:40.905Z,74.41
2022-11-17T10:43:14.553Z,74.08
2022-11-17T10:45:46.805Z,73.31
2022-11-17T10:48:28.908Z,73.29
2022-11-17T10:51:20.562Z,73.36
2022-11-17T10:54:05.315Z,72.42
2022-11-17T10:56:42.748Z,72.11
2022-11-17T10:59:10.410Z,69.44
2022-11-17T11:01:41.441Z,70.37
2022-11-17T11:04:29.955Z,70.40
2022-11-17T11:07:12.639Z,70.17
2022-11-17T11:10:05.832Z,69.94
2022-11-17T11:13:00.347Z,70.42
2022-11-17T11:15:33.754Z,70.06
2022-11-17T11:18:01.397Z,70.43
2022-11-17T11:20:43.654Z,70.68
2022-11-17T11:23:23.058Z,70.11
2022-11-17T11:25:58.655Z,70.51
2022-11-17T11:28:58.812Z,71.40
2022-11-17T11:31:29.592Z,71.15
2022-11-17T11:34:16.554Z,71.62
2022-11-17T11:36:48.512Z,71.90
2022-11-17T11:39:37.160Z,72.00
2022-11-17T11:42:38.995Z,72.06
2022-11-17T11:45:29.358Z,70.83
2022-11-17T11:48:00.338Z,71.55
2022-11-17T11:50:35.424Z,72.04
2022-11-17T11:53:44.873Z,72.34
2022-11-17T11:56:29.681Z,71.34
2022-11-17T11:59:08.317Z,70.78
2022-11-17T12:02:14.509Z,70.50
2022-11-17T12:04:52.122Z,68.76
2022-11-17T12:07:37.511Z,68.62
2022-11-17T12:10:05.212Z,67.77
2022-11-17T12:12:37.809Z,67.78
2022-11-17T12:15:20.534Z,67.29
2022-11-17T12:17:53.917Z,66.06
2022-11-17T12:20:39.973Z,64.53
2022-11-17T12:23:10.612Z,65.55
2022-11-17T12:25:53.542Z,64.70
2022-11-17T12:28:42.001Z,64.62
2022-11-17T12:31:45.523Z,65.13
2022-11-17T12:34:28.606Z,63.82
2022-11-17T12:37:20.048Z,64.01
2022-11-17T12:40:06.043Z,62.51
2022-11-17T12:42:35.405Z,61.15
2022-11-17T12:45:13.056Z,63.08
2022-11-17T12:48:05.266Z,62.20
2022-11-17T12:50:54.447Z,61.56
2022-11-17T12:53:27.617Z,60.09
2022-11-17T12:56:13.671Z,60.19
2022-11-17T12:58:47.331Z,59.59
2022-11-17T13:01:29.214Z,60.74
2022-11-17T13:04:00.544Z,58.71
2022-11-17T13:06:35.474Z,58.34
2022-11-17T13:09:12.609Z,58.69
2022-11-17T13:11:40.329Z,58.85
2022-11-17T13:14:17.470Z,59.74
2022-11-17T13:16:51.312Z,57.84
2022-11-17T13:19:41.511Z,58.52
2022-11-17T13:22:19.977Z,57.43
2022-11-17T13:24:50.196Z,59.23
2022-11-17T13:27:29.530Z,59.35
2022-11-17T13:30:22.726Z,57.26
2022-11-17T13:32:51.091Z,57.85
2022-11-17T13:35:26.912Z,58.95
2022-11-17T13:38:03.732Z,58.75
2022-11-17T13:40:32.911Z,57.28
2022-11-17T13:43:01.955Z,59.09
2022-11-17T13:45:29.761Z,59.31
2022-11-17T13:47:59.501Z,59.53
2022-11-17T13:50:33.200Z,58.35
2022-11-17T13:53:23.793Z,58.50
2022-11-17T13:55:52.532Z,59.31
2022-11-17T13:58:41.791Z,59.27
2022-11-17T14:01:14.799Z,58.34
2022-11-17T14:03:44.870Z,58.33
2022-11-17T14:06:14.538Z,58.71
2022-11-17T14:08:44.595Z,58.80
2022-11-17T14:11:12.299Z,58.74
2022-11-17T14:14:00.117Z,59.11
2022-11-17T14:16:40.441Z,58.94
2022-11-17T14:19:17.051Z,59.07
2022-11-17T14:22:04.889Z,58.22
2022-11-17T14:24:33.983Z,58.78
2022-11-17T14:27:02.529Z,59.36
2022-11-17T14:29:30.918Z,59.10
2022-11-17T14:31:58.658Z,59.59
2022-11-17T14:34:27.008Z,59.68
2022-11-17T14:36:56.565Z,59.86
2022-11-17T14:39:24.356Z,59.89
2022-11-17T14:41:52.420Z,59.66
2022-11-17T14:44:20.322Z,59.54
2022-11-17T14:46:48.211Z,59.79
2022-11-17T14:49:16.348Z,59.72
2022-11-17T14:51:44.352Z,59.58
2022-11-17T14:54:12.442Z,59.36
2022-11-17T14:56:40.351Z,58.39
2022-11-17T14:59:08.075Z,60.07
2022-11-17T15:01:39.441Z,60.84
2022-11-17T15:04:27.614Z,61.24
2022-11-17T15:06:55.417Z,61.76
2022-11-17T15:09:23.197Z,61.83
2022-11-17T15:11:51.069Z,62.38
2022-11-17T15:14:19.179Z,62.80
2022-11-17T15:16:47.109Z,63.04
2022-11-17T15:19:14.799Z,63.47
2022-11-17T15:21:42.593Z,63.74
2022-11-17T15:24:10.442Z,63.87
2022-11-17T15:26:38.231Z,63.82
2022-11-17T15:29:05.994Z,63.63
2022-11-17T15:31:33.665Z,63.65
2022-11-17T15:34:02.337Z,63.77
2022-11-17T15:36:31.050Z,64.00
2022-11-17T15:38:58.818Z,64.23
2022-11-17T15:41:32.407Z,64.17
2022-11-17T15:44:00.620Z,64.35
2022-11-17T15:46:28.570Z,64.67
2022-11-17T15:48:56.495Z,64.90
2022-11-17T15:51:27.279Z,64.82
2022-11-17T15:53:58.946Z,64.89
2022-11-17T15:56:32.525Z,64.97
2022-11-17T15:59:06.249Z,65.51
2022-11-17T16:01:34.755Z,65.13
2022-11-17T16:04:13.518Z,65.05
2022-11-17T16:06:43.643Z,64.91
2022-11-17T16:09:11.842Z,65.38
2022-11-17T16:11:40.102Z,65.49
2022-11-17T16:14:07.892Z,65.67
2022-11-17T16:16:38.259Z,65.97
2022-11-17T16:19:07.102Z,66.48
2022-11-17T16:21:35.317Z,66.94
2022-11-17T16:24:03.271Z,67.43
2022-11-17T16:26:31.753Z,67.92
2022-11-17T16:29:05.640Z,68.61
2022-11-17T16:31:36.091Z,68.91
2022-11-17T16:34:06.714Z,69.56
2022-11-17T16:36:38.502Z,70.19
2022-11-17T16:39:12.862Z,70.46
2022-11-17T16:41:42.978Z,71.40
2022-11-17T16:44:13.212Z,71.22
2022-11-17T16:46:44.203Z,71.85
2022-11-17T16:49:14.526Z,72.34
2022-11-17T16:51:51.217Z,72.66
2022-11-17T16:54:19.804Z,73.10
2022-11-17T16:56:47.616Z,73.61
2022-11-17T16:59:16.214Z,74.00
2022-11-17T17:01:44.313Z,74.30
2022-11-17T17:04:13.399Z,74.88
2022-11-17T17:06:43.145Z,75.03
2022-11-17T17:09:13.651Z,74.74
2022-11-17T17:11:42.285Z,74.89
2022-11-17T17:14:13.625Z,74.99
2022-11-17T17:16:42.600Z,75.61
2022-11-17T17:19:12.555Z,75.76
2022-11-17T17:21:41.890Z,75.96
2022-11-17T17:24:10.549Z,76.12
2022-11-17T17:26:39.271Z,76.46
2022-11-17T17:29:07.955Z,77.56
2022-11-17T17:31:43.448Z,77.38
2022-11-17T17:34:14.030Z,77.88
2022-11-17T17:36:41.788Z,77.56
2022-11-17T17:39:09.644Z,77.66
2022-11-17T17:41:41.218Z,77.67
2022-11-17T17:44:14.308Z,78.00
2022-11-17T17:46:43.915Z,78.09
2022-11-17T17:49:11.932Z,78.10
2022-11-17T17:51:44.245Z,78.41
2022-11-17T17:54:20.903Z,78.48
2022-11-17T17:56:49.158Z,78.77
2022-11-17T17:59:17.924Z,78.80
2022-11-17T18:01:47.238Z,78.88
2022-11-17T18:04:16.421Z,79.07
2022-11-17T18:06:47.164Z,79.09
2022-11-17T18:09:16.521Z,78.96
2022-11-17T18:11:46.808Z,79.42
2022-11-17T18:14:15.092Z,79.43
2022-11-17T18:16:42.818Z,79.42
2022-11-17T18:19:14.982Z,79.48
2022-11-17T18:21:43.466Z,79.86
2022-11-17T18:24:12.727Z,79.68
2022-11-17T18:26:42.156Z,79.70
2022-11-17T18:29:14.824Z,79.66
2022-11-17T18:31:43.527Z,80.40
2022-11-17T18:34:15.961Z,80.07
2022-11-17T18:36:43.670Z,79.97
2022-11-17T18:39:11.840Z,79.04
2022-11-17T18:41:39.932Z,78.43
2022-11-17T18:44:07.668Z,77.88
2022-11-17T18:46:35.490Z,77.89
2022-11-17T18:49:03.247Z,77.38
2022-11-17T18:51:32.796Z,77.59
2022-11-17T18:54:02.059Z,77.50
2022-11-17T18:56:34.730Z,77.81
2022-11-17T18:59:03.022Z,77.60
2022-11-17T19:01:31.769Z,77.55
2022-11-17T19:04:03.425Z,77.71
2022-11-17T19:06:31.944Z,77.55
2022-11-17T19:09:01.038Z,77.40
2022-11-17T19:11:31.839Z,77.45
2022-11-17T19:14:03.314Z,77.46
2022-11-17T19:16:31.468Z,77.35
2022-11-17T19:19:00.460Z,77.23
2022-11-17T19:21:30.780Z,76.95
2022-11-17T19:24:00.702Z,76.91
2022-11-17T19:26:34.033Z,77.07
2022-11-17T19:29:04.630Z,76.95
2022-11-17T19:31:32.709Z,77.25
2022-11-17T19:34:00.828Z,77.20
2022-11-17T19:36:30.944Z,77.33
2022-11-17T19:39:00.450Z,77.40
2022-11-17T19:41:35.682Z,77.93
2022-11-17T19:44:05.508Z,78.42
2022-11-17T19:46:34.297Z,79.34
2022-11-17T19:49:01.985Z,80.99
2022-11-17T19:51:32.262Z,82.62
2022-11-17T19:54:02.905Z,84.65
2022-11-17T19:56:30.745Z,85.04
2022-11-17T19:58:58.427Z,86.34
2022-11-17T20:01:31.342Z,88.05
2022-11-17T20:04:03.898Z,88.68
2022-11-17T20:06:38.067Z,89.47
2022-11-17T20:09:14.543Z,91.12
2022-11-17T20:11:43.041Z,92.18
2022-11-17T20:14:11.031Z,92.96
2022-11-17T20:16:39.882Z,94.25
2022-11-17T20:19:08.106Z,95.29
2022-11-17T20:21:35.895Z,95.55
2022-11-17T20:24:03.821Z,95.10
2022-11-17T20:26:34.158Z,96.52
2022-11-17T20:29:02.751Z,97.40
2022-11-17T20:31:33.636Z,97.91
2022-11-17T20:34:02.825Z,98.92
2022-11-17T20:36:32.517Z,99.51
2022-11-17T20:39:02.213Z,100.00
2022-11-17T20:41:30.361Z,100.00
2022-11-17T20:43:59.725Z,100.00
2022-11-17T20:46:27.966Z,100.00
2022-11-17T20:48:55.726Z,100.00
2022-11-17T20:51:26.064Z,100.00
2022-11-17T20:53:54.601Z,100.00
2022-11-17T20:56:22.484Z,100.00
2022-11-17T20:58:50.313Z,100.00
2022-11-17T21:01:20.925Z,100.00
2022-11-17T21:03:49.145Z,100.00
2022-11-17T21:06:17.205Z,99.70
2022-11-17T21:08:46.157Z,100.00
2022-11-17T21:11:35.192Z,100.00
2022-11-17T21:14:03.951Z,100.00
2022-11-17T21:16:31.609Z,100.00
2022-11-17T21:18:59.946Z,100.00
2022-11-17T21:21:27.860Z,100.00
2022-11-17T21:23:56.038Z,100.00
2022-11-17T21:26:24.358Z,100.00
2022-11-17T21:28:53.330Z,100.00
2022-11-17T21:31:24.651Z,99.98
2022-11-17T21:33:57.807Z,99.69
2022-11-17T21:36:27.226Z,99.93
2022-11-17T21:38:56.110Z,100.00
2022-11-17T21:41:26.175Z,100.00
2022-11-17T21:43:55.665Z,100.00
2022-11-17T21:46:25.559Z,100.00
2022-11-17T21:48:55.335Z,100.00
2022-11-17T21:51:29.095Z,100.00
2022-11-17T21:53:59.095Z,100.00
2022-11-17T21:56:28.219Z,100.00
2022-11-17T21:59:07.141Z,100.00
2022-11-17T22:01:35.889Z,100.00
2022-11-17T22:04:04.029Z,100.00
2022-11-17T22:06:32.107Z,100.00
2022-11-17T22:09:00.730Z,100.00
2022-11-17T22:11:37.176Z,100.00
2022-11-17T22:14:15.285Z,100.00
2022-11-17T22:16:45.400Z,100.00
2022-11-17T22:19:14.662Z,100.00
2022-11-17T22:21:43.521Z,100.00
2022-11-17T22:24:12.763Z,100.00
2022-11-17T22:26:42.490Z,100.00
2022-11-17T22:29:14.326Z,100.00
2022-11-17T22:31:42.856Z,100.00
2022-11-17T22:34:10.928Z,100.00
2022-11-17T22:36:38.727Z,100.00
2022-11-17T22:39:07.105Z,100.00
2022-11-17T22:41:34.809Z,100.00
2022-11-17T22:44:02.495Z,100.00
2022-11-17T22:46:30.468Z,100.00
2022-11-17T22:48:58.285Z,100.00
2022-11-17T22:51:44.868Z,100.00
2022-11-17T22:54:12.454Z,100.00
2022-11-17T22:56:40.438Z,100.00
2022-11-17T22:59:08.286Z,100.00
2022-11-17T23:01:35.943Z,100.00
2022-11-17T23:04:03.688Z,100.00
2022-11-17T23:06:31.399Z,100.00
2022-11-17T23:08:59.677Z,100.00
2022-11-17T23:11:37.871Z,100.00
2022-11-17T23:14:12.007Z,100.00
2022-11-17T23:16:40.069Z,100.00
2022-11-17T23:19:10.529Z,100.00
2022-11-17T23:21:38.105Z,100.00
2022-11-17T23:24:06.088Z,100.00
2022-11-17T23:26:33.783Z,100.00
2022-11-17T23:29:01.511Z,100.00
2022-11-17T23:31:29.313Z,100.00
2022-11-17T23:33:57.370Z,100.00
2022-11-17T23:36:25.563Z,100.00
2022-11-17T23:38:55.276Z,100.00
2022-11-17T23:41:23.105Z,100.00
2022-11-17T23:43:52.430Z,100.00
2022-11-17T23:46:22.319Z,100.00
2022-11-17T23:48:50.206Z,100.00
2022-11-17T23:51:21.171Z,100.00
2022-11-17T23:53:49.056Z,100.00
2022-11-17T23:56:17.138Z,100.00
2022-11-17T23:58:45.275Z,100.00
